sensor_id;sensor_type;location;lat;lon;timestamp;P1;durP1;ratioP1;P2;durP2;ratioP2
27847;SDS011;15212;48.830;8.730;2022-08-19T00:00:05;33.65;;;20.50;;
27847;SDS011;15212;48.830;8.730;2022-08-19T00:02:36;33.28;;;21.00;;
27847;SDS011;15212;48.830;8.730;2022-08-19T00:05:04;32.10;;;20.35;;
27847;SDS011;15212;48.830;8.730;2022-08-19T00:07:33;31.85;;;20.92;;
27847;SDS011;15212;48.830;8.730;2022-08-19T00:10:04;32.73;;;20.97;;
27847;SDS011;15212;48.830;8.730;2022-08-19T00:12:34;30.97;;;20.52;;
27847;SDS011;15212;48.830;8.730;2022-08-19T00:15:07;32.30;;;21.75;;
27847;SDS011;15212;48.830;8.730;2022-08-19T00:17:38;32.20;;;20.70;;
27847;SDS011;15212;48.830;8.730;2022-08-19T00:20:10;34.80;;;21.10;;
27847;SDS011;15212;48.830;8.730;2022-08-19T00:22:44;32.85;;;21.87;;
27847;SDS011;15212;48.830;8.730;2022-08-19T00:25:14;33.30;;;22.10;;
27847;SDS011;15212;48.830;8.730;2022-08-19T00:27:44;33.45;;;21.77;;
27847;SDS011;15212;48.830;8.730;2022-08-19T00:30:13;30.97;;;21.25;;
27847;SDS011;15212;48.830;8.730;2022-08-19T00:32:42;37.60;;;22.05;;
27847;SDS011;15212;48.830;8.730;2022-08-19T00:35:10;31.33;;;22.17;;
27847;SDS011;15212;48.830;8.730;2022-08-19T00:37:39;32.28;;;22.35;;
27847;SDS011;15212;48.830;8.730;2022-08-19T00:40:09;34.35;;;21.77;;
27847;SDS011;15212;48.830;8.730;2022-08-19T00:42:39;36.70;;;23.18;;
27847;SDS011;15212;48.830;8.730;2022-08-19T00:45:12;33.98;;;22.50;;
27847;SDS011;15212;48.830;8.730;2022-08-19T00:47:43;33.88;;;21.48;;
27847;SDS011;15212;48.830;8.730;2022-08-19T00:50:17;32.25;;;21.90;;
27847;SDS011;15212;48.830;8.730;2022-08-19T00:52:47;35.45;;;20.70;;
27847;SDS011;15212;48.830;8.730;2022-08-19T00:55:20;33.08;;;23.02;;
27847;SDS011;15212;48.830;8.730;2022-08-19T00:57:53;34.40;;;22.27;;
27847;SDS011;15212;48.830;8.730;2022-08-19T01:02:57;33.20;;;21.87;;
27847;SDS011;15212;48.830;8.730;2022-08-19T01:05:27;31.55;;;21.77;;
27847;SDS011;15212;48.830;8.730;2022-08-19T01:07:57;35.10;;;22.82;;
27847;SDS011;15212;48.830;8.730;2022-08-19T01:10:29;33.95;;;22.35;;
27847;SDS011;15212;48.830;8.730;2022-08-19T01:13:01;35.65;;;22.37;;
27847;SDS011;15212;48.830;8.730;2022-08-19T01:15:31;35.38;;;23.40;;
27847;SDS011;15212;48.830;8.730;2022-08-19T01:18:05;33.70;;;22.52;;
27847;SDS011;15212;48.830;8.730;2022-08-19T01:20:36;34.15;;;22.58;;
27847;SDS011;15212;48.830;8.730;2022-08-19T01:23:07;36.68;;;23.07;;
27847;SDS011;15212;48.830;8.730;2022-08-19T01:25:58;34.48;;;22.07;;
27847;SDS011;15212;48.830;8.730;2022-08-19T01:28:19;36.23;;;22.45;;
27847;SDS011;15212;48.830;8.730;2022-08-19T01:30:52;34.33;;;23.13;;
27847;SDS011;15212;48.830;8.730;2022-08-19T01:33:22;36.17;;;22.73;;
27847;SDS011;15212;48.830;8.730;2022-08-19T01:35:50;35.52;;;23.50;;
27847;SDS011;15212;48.830;8.730;2022-08-19T01:38:20;33.98;;;22.22;;
27847;SDS011;15212;48.830;8.730;2022-08-19T01:40:52;33.98;;;22.02;;
27847;SDS011;15212;48.830;8.730;2022-08-19T01:43:21;33.80;;;22.93;;
27847;SDS011;15212;48.830;8.730;2022-08-19T01:45:49;29.72;;;21.85;;
27847;SDS011;15212;48.830;8.730;2022-08-19T01:48:18;34.15;;;21.85;;
27847;SDS011;15212;48.830;8.730;2022-08-19T01:50:47;33.70;;;22.65;;
27847;SDS011;15212;48.830;8.730;2022-08-19T01:53:16;31.05;;;21.70;;
27847;SDS011;15212;48.830;8.730;2022-08-19T01:55:44;32.15;;;22.10;;
27847;SDS011;15212;48.830;8.730;2022-08-19T01:58:18;31.40;;;22.62;;
27847;SDS011;15212;48.830;8.730;2022-08-19T02:03:18;34.80;;;23.67;;
27847;SDS011;15212;48.830;8.730;2022-08-19T02:05:46;39.35;;;24.65;;
27847;SDS011;15212;48.830;8.730;2022-08-19T02:08:16;37.08;;;23.60;;
27847;SDS011;15212;48.830;8.730;2022-08-19T02:10:45;38.67;;;25.23;;
27847;SDS011;15212;48.830;8.730;2022-08-19T02:13:15;34.78;;;23.67;;
27847;SDS011;15212;48.830;8.730;2022-08-19T02:15:44;38.08;;;25.65;;
27847;SDS011;15212;48.830;8.730;2022-08-19T02:18:12;36.73;;;25.82;;
27847;SDS011;15212;48.830;8.730;2022-08-19T02:20:41;41.68;;;26.93;;
27847;SDS011;15212;48.830;8.730;2022-08-19T02:23:12;37.75;;;25.05;;
27847;SDS011;15212;48.830;8.730;2022-08-19T02:25:43;38.73;;;25.97;;
27847;SDS011;15212;48.830;8.730;2022-08-19T02:28:13;42.55;;;28.00;;
27847;SDS011;15212;48.830;8.730;2022-08-19T02:30:42;40.88;;;27.13;;
27847;SDS011;15212;48.830;8.730;2022-08-19T02:33:11;38.20;;;25.70;;
27847;SDS011;15212;48.830;8.730;2022-08-19T02:35:43;39.30;;;26.15;;
27847;SDS011;15212;48.830;8.730;2022-08-19T02:38:13;35.95;;;25.40;;
27847;SDS011;15212;48.830;8.730;2022-08-19T02:40:52;40.52;;;26.97;;
27847;SDS011;15212;48.830;8.730;2022-08-19T02:43:28;42.90;;;27.48;;
27847;SDS011;15212;48.830;8.730;2022-08-19T02:46:01;42.83;;;29.05;;
27847;SDS011;15212;48.830;8.730;2022-08-19T02:48:41;40.38;;;28.35;;
27847;SDS011;15212;48.830;8.730;2022-08-19T02:51:14;43.58;;;28.95;;
27847;SDS011;15212;48.830;8.730;2022-08-19T02:53:45;47.50;;;30.20;;
27847;SDS011;15212;48.830;8.730;2022-08-19T02:56:13;42.62;;;28.17;;
27847;SDS011;15212;48.830;8.730;2022-08-19T02:58:42;43.95;;;29.15;;
27847;SDS011;15212;48.830;8.730;2022-08-19T03:01:10;42.93;;;28.30;;
27847;SDS011;15212;48.830;8.730;2022-08-19T03:03:48;44.50;;;29.48;;
27847;SDS011;15212;48.830;8.730;2022-08-19T03:06:17;40.95;;;28.10;;
27847;SDS011;15212;48.830;8.730;2022-08-19T03:08:46;40.55;;;28.70;;
27847;SDS011;15212;48.830;8.730;2022-08-19T03:11:17;43.13;;;29.45;;
27847;SDS011;15212;48.830;8.730;2022-08-19T03:13:51;46.28;;;30.88;;
27847;SDS011;15212;48.830;8.730;2022-08-19T03:16:21;45.48;;;29.75;;
27847;SDS011;15212;48.830;8.730;2022-08-19T03:18:52;41.42;;;28.40;;
27847;SDS011;15212;48.830;8.730;2022-08-19T03:21:23;43.73;;;29.12;;
27847;SDS011;15212;48.830;8.730;2022-08-19T03:23:54;43.05;;;29.45;;
27847;SDS011;15212;48.830;8.730;2022-08-19T03:26:25;45.35;;;29.07;;
27847;SDS011;15212;48.830;8.730;2022-08-19T03:28:54;44.50;;;30.12;;
27847;SDS011;15212;48.830;8.730;2022-08-19T03:31:23;42.58;;;29.57;;
27847;SDS011;15212;48.830;8.730;2022-08-19T03:33:53;46.33;;;30.30;;
27847;SDS011;15212;48.830;8.730;2022-08-19T03:36:24;45.10;;;29.30;;
27847;SDS011;15212;48.830;8.730;2022-08-19T03:38:55;46.20;;;30.48;;
27847;SDS011;15212;48.830;8.730;2022-08-19T03:41:27;46.70;;;30.80;;
27847;SDS011;15212;48.830;8.730;2022-08-19T03:43:59;44.77;;;29.63;;
27847;SDS011;15212;48.830;8.730;2022-08-19T03:46:28;42.43;;;29.52;;
27847;SDS011;15212;48.830;8.730;2022-08-19T03:49:00;45.03;;;30.50;;
27847;SDS011;15212;48.830;8.730;2022-08-19T03:51:33;45.50;;;30.75;;
27847;SDS011;15212;48.830;8.730;2022-08-19T03:54:05;40.00;;;28.60;;
27847;SDS011;15212;48.830;8.730;2022-08-19T03:56:37;41.58;;;29.07;;
27847;SDS011;15212;48.830;8.730;2022-08-19T03:59:08;42.05;;;29.85;;
27847;SDS011;15212;48.830;8.730;2022-08-19T04:01:39;43.05;;;28.60;;
27847;SDS011;15212;48.830;8.730;2022-08-19T04:04:08;42.67;;;29.60;;
27847;SDS011;15212;48.830;8.730;2022-08-19T04:06:37;45.28;;;30.90;;
27847;SDS011;15212;48.830;8.730;2022-08-19T04:09:08;43.87;;;30.30;;
27847;SDS011;15212;48.830;8.730;2022-08-19T04:11:39;49.70;;;32.30;;
27847;SDS011;15212;48.830;8.730;2022-08-19T04:14:11;45.80;;;31.07;;
27847;SDS011;15212;48.830;8.730;2022-08-19T04:16:44;49.42;;;31.80;;
27847;SDS011;15212;48.830;8.730;2022-08-19T04:19:15;46.18;;;31.10;;
27847;SDS011;15212;48.830;8.730;2022-08-19T04:21:46;48.52;;;31.35;;
27847;SDS011;15212;48.830;8.730;2022-08-19T04:24:17;44.98;;;30.05;;
27847;SDS011;15212;48.830;8.730;2022-08-19T04:26:47;48.25;;;30.95;;
27847;SDS011;15212;48.830;8.730;2022-08-19T04:29:17;44.08;;;30.90;;
27847;SDS011;15212;48.830;8.730;2022-08-19T04:31:51;48.83;;;31.97;;
27847;SDS011;15212;48.830;8.730;2022-08-19T04:37:09;49.88;;;31.62;;
27847;SDS011;15212;48.830;8.730;2022-08-19T04:39:38;46.40;;;31.55;;
27847;SDS011;15212;48.830;8.730;2022-08-19T04:42:24;53.85;;;32.58;;
27847;SDS011;15212;48.830;8.730;2022-08-19T04:45:09;49.88;;;32.42;;
27847;SDS011;15212;48.830;8.730;2022-08-19T04:47:41;49.03;;;32.55;;
27847;SDS011;15212;48.830;8.730;2022-08-19T04:50:10;48.25;;;33.75;;
27847;SDS011;15212;48.830;8.730;2022-08-19T04:52:39;49.18;;;33.02;;
27847;SDS011;15212;48.830;8.730;2022-08-19T04:55:10;49.98;;;33.10;;
27847;SDS011;15212;48.830;8.730;2022-08-19T04:57:40;48.85;;;33.10;;
27847;SDS011;15212;48.830;8.730;2022-08-19T05:00:08;50.92;;;33.05;;
27847;SDS011;15212;48.830;8.730;2022-08-19T05:02:38;49.20;;;32.42;;
27847;SDS011;15212;48.830;8.730;2022-08-19T05:05:07;52.53;;;33.45;;
27847;SDS011;15212;48.830;8.730;2022-08-19T05:07:35;48.40;;;33.53;;
27847;SDS011;15212;48.830;8.730;2022-08-19T05:10:05;51.95;;;33.28;;
27847;SDS011;15212;48.830;8.730;2022-08-19T05:12:34;51.20;;;32.75;;
27847;SDS011;15212;48.830;8.730;2022-08-19T05:15:03;49.58;;;32.08;;
27847;SDS011;15212;48.830;8.730;2022-08-19T05:17:37;55.03;;;33.95;;
27847;SDS011;15212;48.830;8.730;2022-08-19T05:20:07;53.65;;;33.48;;
27847;SDS011;15212;48.830;8.730;2022-08-19T05:22:54;56.08;;;34.67;;
27847;SDS011;15212;48.830;8.730;2022-08-19T05:25:22;49.15;;;33.00;;
27847;SDS011;15212;48.830;8.730;2022-08-19T05:27:51;43.45;;;30.30;;
27847;SDS011;15212;48.830;8.730;2022-08-19T05:30:19;48.75;;;32.35;;
27847;SDS011;15212;48.830;8.730;2022-08-19T05:32:48;49.10;;;32.95;;
27847;SDS011;15212;48.830;8.730;2022-08-19T05:35:16;51.15;;;32.28;;
27847;SDS011;15212;48.830;8.730;2022-08-19T05:37:45;47.40;;;32.58;;
27847;SDS011;15212;48.830;8.730;2022-08-19T05:40:13;50.10;;;32.78;;
27847;SDS011;15212;48.830;8.730;2022-08-19T05:42:41;47.25;;;32.35;;
27847;SDS011;15212;48.830;8.730;2022-08-19T05:45:11;49.40;;;32.78;;
27847;SDS011;15212;48.830;8.730;2022-08-19T05:47:39;44.48;;;30.92;;
27847;SDS011;15212;48.830;8.730;2022-08-19T05:50:07;44.05;;;30.68;;
27847;SDS011;15212;48.830;8.730;2022-08-19T05:52:36;46.35;;;31.33;;
27847;SDS011;15212;48.830;8.730;2022-08-19T05:55:05;45.78;;;30.72;;
27847;SDS011;15212;48.830;8.730;2022-08-19T05:57:35;43.68;;;30.32;;
27847;SDS011;15212;48.830;8.730;2022-08-19T06:00:04;45.90;;;31.20;;
27847;SDS011;15212;48.830;8.730;2022-08-19T06:02:37;42.90;;;29.50;;
27847;SDS011;15212;48.830;8.730;2022-08-19T06:05:06;45.50;;;30.90;;
27847;SDS011;15212;48.830;8.730;2022-08-19T06:07:36;47.53;;;31.45;;
27847;SDS011;15212;48.830;8.730;2022-08-19T06:10:06;44.73;;;30.62;;
27847;SDS011;15212;48.830;8.730;2022-08-19T06:12:37;41.92;;;29.37;;
27847;SDS011;15212;48.830;8.730;2022-08-19T06:15:07;42.08;;;29.18;;
27847;SDS011;15212;48.830;8.730;2022-08-19T06:17:39;41.28;;;29.02;;
27847;SDS011;15212;48.830;8.730;2022-08-19T06:20:11;48.52;;;30.35;;
27847;SDS011;15212;48.830;8.730;2022-08-19T06:22:48;39.42;;;27.75;;
27847;SDS011;15212;48.830;8.730;2022-08-19T06:25:17;40.90;;;27.98;;
27847;SDS011;15212;48.830;8.730;2022-08-19T06:27:46;43.28;;;29.07;;
27847;SDS011;15212;48.830;8.730;2022-08-19T06:30:15;41.00;;;29.45;;
27847;SDS011;15212;48.830;8.730;2022-08-19T06:32:43;37.88;;;28.38;;
27847;SDS011;15212;48.830;8.730;2022-08-19T06:35:11;41.68;;;27.98;;
27847;SDS011;15212;48.830;8.730;2022-08-19T06:37:40;39.40;;;29.12;;
27847;SDS011;15212;48.830;8.730;2022-08-19T06:40:10;38.28;;;25.90;;
27847;SDS011;15212;48.830;8.730;2022-08-19T06:42:39;36.80;;;26.57;;
27847;SDS011;15212;48.830;8.730;2022-08-19T06:45:08;39.08;;;27.05;;
27847;SDS011;15212;48.830;8.730;2022-08-19T06:47:36;38.85;;;27.37;;
27847;SDS011;15212;48.830;8.730;2022-08-19T06:50:05;41.02;;;27.82;;
27847;SDS011;15212;48.830;8.730;2022-08-19T06:52:35;41.18;;;27.90;;
27847;SDS011;15212;48.830;8.730;2022-08-19T06:55:03;41.98;;;27.95;;
27847;SDS011;15212;48.830;8.730;2022-08-19T06:57:32;40.05;;;27.30;;
27847;SDS011;15212;48.830;8.730;2022-08-19T07:00:02;36.23;;;25.88;;
27847;SDS011;15212;48.830;8.730;2022-08-19T07:02:34;38.40;;;27.10;;
27847;SDS011;15212;48.830;8.730;2022-08-19T07:05:03;36.98;;;26.62;;
27847;SDS011;15212;48.830;8.730;2022-08-19T07:07:33;39.55;;;28.05;;
27847;SDS011;15212;48.830;8.730;2022-08-19T07:10:02;36.75;;;27.10;;
27847;SDS011;15212;48.830;8.730;2022-08-19T07:12:31;35.50;;;26.23;;
27847;SDS011;15212;48.830;8.730;2022-08-19T07:15:00;40.58;;;27.75;;
27847;SDS011;15212;48.830;8.730;2022-08-19T07:17:31;40.80;;;28.57;;
27847;SDS011;15212;48.830;8.730;2022-08-19T07:20:01;40.08;;;26.97;;
27847;SDS011;15212;48.830;8.730;2022-08-19T07:22:30;39.40;;;27.67;;
27847;SDS011;15212;48.830;8.730;2022-08-19T07:24:59;38.67;;;27.10;;
27847;SDS011;15212;48.830;8.730;2022-08-19T07:27:29;38.20;;;26.65;;
27847;SDS011;15212;48.830;8.730;2022-08-19T07:29:58;36.28;;;25.97;;
27847;SDS011;15212;48.830;8.730;2022-08-19T07:32:26;35.78;;;25.52;;
27847;SDS011;15212;48.830;8.730;2022-08-19T07:34:56;36.70;;;27.32;;
27847;SDS011;15212;48.830;8.730;2022-08-19T07:37:26;36.03;;;26.42;;
27847;SDS011;15212;48.830;8.730;2022-08-19T07:39:54;39.30;;;26.48;;
27847;SDS011;15212;48.830;8.730;2022-08-19T07:42:23;42.65;;;28.57;;
27847;SDS011;15212;48.830;8.730;2022-08-19T07:44:52;38.05;;;25.97;;
27847;SDS011;15212;48.830;8.730;2022-08-19T07:47:20;37.70;;;26.70;;
27847;SDS011;15212;48.830;8.730;2022-08-19T07:49:49;43.20;;;27.58;;
27847;SDS011;15212;48.830;8.730;2022-08-19T07:52:17;36.73;;;25.12;;
27847;SDS011;15212;48.830;8.730;2022-08-19T07:54:45;39.78;;;27.85;;
27847;SDS011;15212;48.830;8.730;2022-08-19T07:57:15;38.25;;;26.60;;
27847;SDS011;15212;48.830;8.730;2022-08-19T07:59:44;34.73;;;25.12;;
27847;SDS011;15212;48.830;8.730;2022-08-19T08:02:13;32.65;;;24.10;;
27847;SDS011;15212;48.830;8.730;2022-08-19T08:04:41;35.17;;;25.35;;
27847;SDS011;15212;48.830;8.730;2022-08-19T08:07:27;34.58;;;25.35;;
27847;SDS011;15212;48.830;8.730;2022-08-19T08:10:13;30.35;;;22.32;;
27847;SDS011;15212;48.830;8.730;2022-08-19T08:12:42;34.23;;;24.37;;
27847;SDS011;15212;48.830;8.730;2022-08-19T08:15:12;35.30;;;24.50;;
27847;SDS011;15212;48.830;8.730;2022-08-19T08:17:45;35.55;;;23.47;;
27847;SDS011;15212;48.830;8.730;2022-08-19T08:20:14;30.43;;;22.10;;
27847;SDS011;15212;48.830;8.730;2022-08-19T08:22:44;33.95;;;23.55;;
27847;SDS011;15212;48.830;8.730;2022-08-19T08:25:32;32.93;;;24.02;;
27847;SDS011;15212;48.830;8.730;2022-08-19T08:28:01;29.23;;;21.27;;
27847;SDS011;15212;48.830;8.730;2022-08-19T08:30:31;31.75;;;23.60;;
27847;SDS011;15212;48.830;8.730;2022-08-19T08:33:01;32.83;;;22.42;;
27847;SDS011;15212;48.830;8.730;2022-08-19T08:35:30;31.60;;;22.87;;
27847;SDS011;15212;48.830;8.730;2022-08-19T08:37:59;30.35;;;21.80;;
27847;SDS011;15212;48.830;8.730;2022-08-19T08:43:21;31.07;;;20.20;;
27847;SDS011;15212;48.830;8.730;2022-08-19T08:46:14;30.57;;;21.07;;
27847;SDS011;15212;48.830;8.730;2022-08-19T08:49:04;32.13;;;20.10;;
27847;SDS011;15212;48.830;8.730;2022-08-19T08:51:47;30.02;;;21.17;;
27847;SDS011;15212;48.830;8.730;2022-08-19T08:54:29;30.50;;;20.15;;
27847;SDS011;15212;48.830;8.730;2022-08-19T08:57:12;32.83;;;21.40;;
27847;SDS011;15212;48.830;8.730;2022-08-19T09:02:15;30.70;;;21.70;;
27847;SDS011;15212;48.830;8.730;2022-08-19T09:04:45;37.67;;;22.02;;
27847;SDS011;15212;48.830;8.730;2022-08-19T09:07:18;29.80;;;20.35;;
27847;SDS011;15212;48.830;8.730;2022-08-19T09:09:50;25.88;;;18.65;;
27847;SDS011;15212;48.830;8.730;2022-08-19T09:12:44;29.50;;;20.60;;
27847;SDS011;15212;48.830;8.730;2022-08-19T09:15:08;27.90;;;19.20;;
27847;SDS011;15212;48.830;8.730;2022-08-19T09:17:39;29.05;;;18.77;;
27847;SDS011;15212;48.830;8.730;2022-08-19T09:22:46;28.60;;;18.98;;
27847;SDS011;15212;48.830;8.730;2022-08-19T09:25:16;25.95;;;19.77;;
27847;SDS011;15212;48.830;8.730;2022-08-19T09:27:48;28.67;;;20.65;;
27847;SDS011;15212;48.830;8.730;2022-08-19T09:30:20;26.45;;;19.25;;
27847;SDS011;15212;48.830;8.730;2022-08-19T09:32:53;26.10;;;19.70;;
27847;SDS011;15212;48.830;8.730;2022-08-19T09:35:23;25.10;;;17.57;;
27847;SDS011;15212;48.830;8.730;2022-08-19T09:37:55;26.77;;;17.55;;
27847;SDS011;15212;48.830;8.730;2022-08-19T09:40:24;26.97;;;18.15;;
27847;SDS011;15212;48.830;8.730;2022-08-19T09:42:54;25.88;;;18.30;;
27847;SDS011;15212;48.830;8.730;2022-08-19T09:45:25;26.90;;;18.48;;
27847;SDS011;15212;48.830;8.730;2022-08-19T09:47:53;25.65;;;16.85;;
27847;SDS011;15212;48.830;8.730;2022-08-19T09:50:23;23.25;;;16.02;;
27847;SDS011;15212;48.830;8.730;2022-08-19T09:52:51;25.00;;;17.35;;
27847;SDS011;15212;48.830;8.730;2022-08-19T09:55:20;22.60;;;15.83;;
27847;SDS011;15212;48.830;8.730;2022-08-19T09:57:48;19.73;;;15.25;;
27847;SDS011;15212;48.830;8.730;2022-08-19T10:00:16;25.65;;;15.38;;
27847;SDS011;15212;48.830;8.730;2022-08-19T10:02:46;21.80;;;14.60;;
27847;SDS011;15212;48.830;8.730;2022-08-19T10:05:14;21.73;;;14.38;;
27847;SDS011;15212;48.830;8.730;2022-08-19T10:10:28;20.10;;;12.73;;
27847;SDS011;15212;48.830;8.730;2022-08-19T10:12:57;16.50;;;12.07;;
27847;SDS011;15212;48.830;8.730;2022-08-19T10:15:25;18.62;;;13.38;;
27847;SDS011;15212;48.830;8.730;2022-08-19T10:17:53;16.60;;;11.30;;
27847;SDS011;15212;48.830;8.730;2022-08-19T10:20:22;18.60;;;12.75;;
27847;SDS011;15212;48.830;8.730;2022-08-19T10:22:50;16.32;;;11.25;;
27847;SDS011;15212;48.830;8.730;2022-08-19T10:25:19;16.12;;;10.98;;
27847;SDS011;15212;48.830;8.730;2022-08-19T10:27:47;15.30;;;11.10;;
27847;SDS011;15212;48.830;8.730;2022-08-19T10:30:16;15.35;;;10.93;;
27847;SDS011;15212;48.830;8.730;2022-08-19T10:32:44;16.40;;;11.68;;
27847;SDS011;15212;48.830;8.730;2022-08-19T10:35:13;18.17;;;11.60;;
27847;SDS011;15212;48.830;8.730;2022-08-19T10:37:43;21.73;;;11.22;;
27847;SDS011;15212;48.830;8.730;2022-08-19T10:40:11;14.78;;;10.90;;
27847;SDS011;15212;48.830;8.730;2022-08-19T10:42:39;19.95;;;12.13;;
27847;SDS011;15212;48.830;8.730;2022-08-19T10:45:09;14.75;;;10.25;;
27847;SDS011;15212;48.830;8.730;2022-08-19T10:47:37;15.32;;;12.43;;
27847;SDS011;15212;48.830;8.730;2022-08-19T10:50:06;17.82;;;11.65;;
27847;SDS011;15212;48.830;8.730;2022-08-19T10:52:52;19.98;;;12.47;;
27847;SDS011;15212;48.830;8.730;2022-08-19T10:55:22;16.85;;;10.70;;
27847;SDS011;15212;48.830;8.730;2022-08-19T10:58:10;15.70;;;12.47;;
27847;SDS011;15212;48.830;8.730;2022-08-19T11:00:41;15.93;;;11.20;;
27847;SDS011;15212;48.830;8.730;2022-08-19T11:03:10;16.35;;;12.35;;
27847;SDS011;15212;48.830;8.730;2022-08-19T11:05:39;16.67;;;12.07;;
27847;SDS011;15212;48.830;8.730;2022-08-19T11:08:08;18.25;;;12.10;;
27847;SDS011;15212;48.830;8.730;2022-08-19T11:10:41;15.90;;;11.03;;
27847;SDS011;15212;48.830;8.730;2022-08-19T11:13:10;12.78;;;10.13;;
27847;SDS011;15212;48.830;8.730;2022-08-19T11:15:38;15.35;;;11.25;;
27847;SDS011;15212;48.830;8.730;2022-08-19T11:18:07;13.68;;;10.20;;
27847;SDS011;15212;48.830;8.730;2022-08-19T11:20:35;12.85;;;10.03;;
27847;SDS011;15212;48.830;8.730;2022-08-19T11:23:04;11.68;;;8.60;;
27847;SDS011;15212;48.830;8.730;2022-08-19T11:25:32;12.28;;;8.80;;
27847;SDS011;15212;48.830;8.730;2022-08-19T11:28:01;15.40;;;9.25;;
27847;SDS011;15212;48.830;8.730;2022-08-19T11:30:30;9.58;;;8.08;;
27847;SDS011;15212;48.830;8.730;2022-08-19T11:32:59;14.30;;;7.80;;
27847;SDS011;15212;48.830;8.730;2022-08-19T11:35:28;10.93;;;7.95;;
27847;SDS011;15212;48.830;8.730;2022-08-19T11:37:56;12.43;;;7.12;;
27847;SDS011;15212;48.830;8.730;2022-08-19T11:40:27;11.60;;;8.08;;
27847;SDS011;15212;48.830;8.730;2022-08-19T11:42:55;11.18;;;8.13;;
27847;SDS011;15212;48.830;8.730;2022-08-19T11:45:25;8.43;;;7.20;;
27847;SDS011;15212;48.830;8.730;2022-08-19T11:47:55;10.25;;;7.60;;
27847;SDS011;15212;48.830;8.730;2022-08-19T11:50:24;8.75;;;6.65;;
27847;SDS011;15212;48.830;8.730;2022-08-19T11:52:53;9.05;;;6.72;;
27847;SDS011;15212;48.830;8.730;2022-08-19T11:55:23;9.03;;;6.78;;
27847;SDS011;15212;48.830;8.730;2022-08-19T11:57:52;10.60;;;6.53;;
27847;SDS011;15212;48.830;8.730;2022-08-19T12:00:20;8.65;;;6.97;;
27847;SDS011;15212;48.830;8.730;2022-08-19T12:02:49;11.90;;;6.95;;
27847;SDS011;15212;48.830;8.730;2022-08-19T12:05:17;11.15;;;8.00;;
27847;SDS011;15212;48.830;8.730;2022-08-19T12:07:45;8.75;;;7.85;;
27847;SDS011;15212;48.830;8.730;2022-08-19T12:10:14;8.90;;;7.40;;
27847;SDS011;15212;48.830;8.730;2022-08-19T12:12:42;9.93;;;7.12;;
27847;SDS011;15212;48.830;8.730;2022-08-19T12:15:11;8.05;;;6.85;;
27847;SDS011;15212;48.830;8.730;2022-08-19T12:17:40;7.80;;;6.50;;
27847;SDS011;15212;48.830;8.730;2022-08-19T12:20:09;9.98;;;7.87;;
27847;SDS011;15212;48.830;8.730;2022-08-19T12:22:41;8.75;;;6.47;;
27847;SDS011;15212;48.830;8.730;2022-08-19T12:25:10;9.73;;;6.83;;
27847;SDS011;15212;48.830;8.730;2022-08-19T12:27:39;8.55;;;6.47;;
27847;SDS011;15212;48.830;8.730;2022-08-19T12:30:10;8.85;;;6.50;;
27847;SDS011;15212;48.830;8.730;2022-08-19T12:32:39;7.95;;;6.33;;
27847;SDS011;15212;48.830;8.730;2022-08-19T12:35:07;9.95;;;6.62;;
27847;SDS011;15212;48.830;8.730;2022-08-19T12:37:37;10.53;;;7.12;;
27847;SDS011;15212;48.830;8.730;2022-08-19T12:40:08;9.73;;;6.50;;
27847;SDS011;15212;48.830;8.730;2022-08-19T12:42:39;8.35;;;6.35;;
27847;SDS011;15212;48.830;8.730;2022-08-19T12:45:08;10.80;;;7.83;;
27847;SDS011;15212;48.830;8.730;2022-08-19T12:47:39;13.48;;;8.68;;
27847;SDS011;15212;48.830;8.730;2022-08-19T12:50:07;10.80;;;7.83;;
27847;SDS011;15212;48.830;8.730;2022-08-19T12:52:36;9.45;;;8.10;;
27847;SDS011;15212;48.830;8.730;2022-08-19T12:55:06;9.55;;;8.45;;
27847;SDS011;15212;48.830;8.730;2022-08-19T12:57:37;10.43;;;8.08;;
27847;SDS011;15212;48.830;8.730;2022-08-19T13:00:07;12.90;;;8.45;;
27847;SDS011;15212;48.830;8.730;2022-08-19T13:02:40;12.25;;;9.83;;
27847;SDS011;15212;48.830;8.730;2022-08-19T13:05:12;15.03;;;10.43;;
27847;SDS011;15212;48.830;8.730;2022-08-19T13:07:44;11.88;;;9.48;;
27847;SDS011;15212;48.830;8.730;2022-08-19T13:10:13;16.15;;;9.78;;
27847;SDS011;15212;48.830;8.730;2022-08-19T13:12:46;9.65;;;8.58;;
27847;SDS011;15212;48.830;8.730;2022-08-19T13:15:17;14.75;;;8.33;;
27847;SDS011;15212;48.830;8.730;2022-08-19T13:17:47;11.80;;;8.38;;
27847;SDS011;15212;48.830;8.730;2022-08-19T13:20:19;9.70;;;8.60;;
27847;SDS011;15212;48.830;8.730;2022-08-19T13:22:48;9.63;;;8.00;;
27847;SDS011;15212;48.830;8.730;2022-08-19T13:25:17;9.25;;;8.23;;
27847;SDS011;15212;48.830;8.730;2022-08-19T13:27:47;11.45;;;8.40;;
27847;SDS011;15212;48.830;8.730;2022-08-19T13:30:17;11.50;;;7.62;;
27847;SDS011;15212;48.830;8.730;2022-08-19T13:33:04;11.38;;;7.80;;
27847;SDS011;15212;48.830;8.730;2022-08-19T13:35:45;10.95;;;7.58;;
27847;SDS011;15212;48.830;8.730;2022-08-19T13:38:17;10.65;;;8.25;;
27847;SDS011;15212;48.830;8.730;2022-08-19T13:40:48;13.22;;;7.62;;
27847;SDS011;15212;48.830;8.730;2022-08-19T13:43:19;9.45;;;7.42;;
27847;SDS011;15212;48.830;8.730;2022-08-19T13:45:51;10.10;;;7.30;;
27847;SDS011;15212;48.830;8.730;2022-08-19T13:48:24;8.70;;;7.67;;
27847;SDS011;15212;48.830;8.730;2022-08-19T13:50:53;10.18;;;7.83;;
27847;SDS011;15212;48.830;8.730;2022-08-19T13:53:21;10.82;;;7.53;;
27847;SDS011;15212;48.830;8.730;2022-08-19T13:55:50;12.60;;;8.38;;
27847;SDS011;15212;48.830;8.730;2022-08-19T13:58:19;8.58;;;7.70;;
27847;SDS011;15212;48.830;8.730;2022-08-19T14:00:48;9.90;;;8.38;;
27847;SDS011;15212;48.830;8.730;2022-08-19T14:03:16;10.08;;;7.83;;
27847;SDS011;15212;48.830;8.730;2022-08-19T14:05:45;9.10;;;7.65;;
27847;SDS011;15212;48.830;8.730;2022-08-19T14:08:13;9.58;;;8.20;;
27847;SDS011;15212;48.830;8.730;2022-08-19T14:10:42;10.58;;;8.28;;
27847;SDS011;15212;48.830;8.730;2022-08-19T14:13:13;12.55;;;7.97;;
27847;SDS011;15212;48.830;8.730;2022-08-19T14:15:44;11.63;;;8.20;;
27847;SDS011;15212;48.830;8.730;2022-08-19T14:18:14;7.90;;;6.92;;
27847;SDS011;15212;48.830;8.730;2022-08-19T14:20:45;8.08;;;7.15;;
27847;SDS011;15212;48.830;8.730;2022-08-19T14:23:13;9.88;;;8.53;;
27847;SDS011;15212;48.830;8.730;2022-08-19T14:25:42;10.30;;;7.65;;
27847;SDS011;15212;48.830;8.730;2022-08-19T14:28:12;9.80;;;8.03;;
27847;SDS011;15212;48.830;8.730;2022-08-19T14:30:40;11.57;;;8.08;;
27847;SDS011;15212;48.830;8.730;2022-08-19T14:33:10;11.30;;;7.80;;
27847;SDS011;15212;48.830;8.730;2022-08-19T14:35:39;11.95;;;8.00;;
27847;SDS011;15212;48.830;8.730;2022-08-19T14:38:14;9.75;;;8.10;;
27847;SDS011;15212;48.830;8.730;2022-08-19T14:40:44;11.15;;;9.00;;
27847;SDS011;15212;48.830;8.730;2022-08-19T14:43:14;10.28;;;8.38;;
27847;SDS011;15212;48.830;8.730;2022-08-19T14:45:43;9.93;;;8.58;;
27847;SDS011;15212;48.830;8.730;2022-08-19T14:48:11;11.10;;;7.92;;
27847;SDS011;15212;48.830;8.730;2022-08-19T14:50:40;11.12;;;8.28;;
27847;SDS011;15212;48.830;8.730;2022-08-19T14:53:08;8.08;;;7.25;;
27847;SDS011;15212;48.830;8.730;2022-08-19T14:55:40;9.68;;;7.40;;
27847;SDS011;15212;48.830;8.730;2022-08-19T14:58:11;11.53;;;7.50;;
27847;SDS011;15212;48.830;8.730;2022-08-19T15:00:40;11.57;;;7.97;;
27847;SDS011;15212;48.830;8.730;2022-08-19T15:03:09;8.43;;;7.53;;